createdAt,value
2022-11-09T00:04:37.282Z,9.49
2022-11-09T00:09:59.074Z,9.48
2022-11-09T00:15:23.825Z,9.48
2022-11-09T00:20:48.087Z,9.40
2022-11-09T00:26:11.442Z,9.34
2022-11-09T00:31:33.272Z,9.36
2022-11-09T00:36:55.074Z,9.40
2022-11-09T00:42:16.734Z,9.40
2022-11-09T00:47:38.363Z,9.43
2022-11-09T00:53:01.030Z,9.43
2022-11-09T00:58:23.348Z,9.42
2022-11-09T01:03:46.149Z,9.31
2022-11-09T01:09:08.217Z,9.23
2022-11-09T01:14:32.217Z,9.27
2022-11-09T01:19:54.110Z,9.21
2022-11-09T01:25:18.079Z,9.15
2022-11-09T01:30:42.759Z,9.10
2022-11-09T01:36:10.069Z,9.02
2022-11-09T01:41:31.798Z,8.96
2022-11-09T01:46:59.744Z,8.98
2022-11-09T01:52:34.267Z,8.90
2022-11-09T01:58:09.323Z,8.97
2022-11-09T02:03:38.277Z,9.02
2022-11-09T02:09:39.062Z,9.07
2022-11-09T02:15:04.180Z,9.02
2022-11-09T02:20:27.689Z,9.03
2022-11-09T02:26:00.356Z,8.96
2022-11-09T02:31:26.176Z,8.79
2022-11-09T02:36:48.074Z,8.85
2022-11-09T02:42:20.063Z,8.89
2022-11-09T02:47:43.944Z,8.79
2022-11-09T02:53:06.266Z,8.70
2022-11-09T02:58:30.296Z,8.71
2022-11-09T03:03:52.326Z,8.82
2022-11-09T03:09:14.194Z,8.89
2022-11-09T03:14:36.085Z,8.98
2022-11-09T03:19:58.417Z,8.98
2022-11-09T03:25:20.527Z,8.99
2022-11-09T03:30:43.678Z,9.09
2022-11-09T03:36:07.227Z,9.15
2022-11-09T03:41:32.054Z,9.10
2022-11-09T03:46:53.809Z,9.07
2022-11-09T03:52:15.839Z,9.06
2022-11-09T03:57:37.644Z,8.99
2022-11-09T04:02:59.702Z,8.99
2022-11-09T04:08:21.594Z,8.98
2022-11-09T04:13:43.428Z,9.02
2022-11-09T04:19:05.027Z,9.00
2022-11-09T04:24:27.186Z,8.97
2022-11-09T04:29:49.196Z,9.02
2022-11-09T04:35:11.247Z,9.03
2022-11-09T04:40:34.445Z,8.99
2022-11-09T04:46:00.028Z,8.97
2022-11-09T04:51:21.689Z,9.00
2022-11-09T04:56:43.882Z,9.01
2022-11-09T05:02:05.411Z,9.09
2022-11-09T05:07:27.554Z,9.16
2022-11-09T05:12:49.203Z,9.12
2022-11-09T05:18:11.078Z,9.15
2022-11-09T05:23:52.099Z,9.22
2022-11-09T05:29:14.030Z,9.18
2022-11-09T05:34:35.350Z,9.15
2022-11-09T05:39:57.280Z,9.11
2022-11-09T05:45:41.487Z,9.13
2022-11-09T05:51:05.680Z,9.11
2022-11-09T05:56:27.782Z,9.14
2022-11-09T06:01:50.041Z,9.14
2022-11-09T06:07:12.199Z,9.02
2022-11-09T06:12:34.216Z,9.05
2022-11-09T06:17:57.679Z,9.07
2022-11-09T06:23:19.813Z,9.12
2022-11-09T06:28:42.489Z,9.14
2022-11-09T06:34:04.811Z,9.24
2022-11-09T06:39:27.006Z,9.33
2022-11-09T06:44:48.728Z,9.39
2022-11-09T06:50:11.865Z,9.43
2022-11-09T06:55:35.233Z,9.52
2022-11-09T07:00:57.958Z,9.70
2022-11-09T07:06:19.660Z,9.83
2022-11-09T07:11:41.576Z,9.99
2022-11-09T07:17:03.335Z,10.05
2022-11-09T07:22:25.377Z,10.19
2022-11-09T07:27:47.602Z,10.34
2022-11-09T07:33:20.252Z,10.44
2022-11-09T07:38:42.310Z,10.62
2022-11-09T07:44:04.907Z,10.75
2022-11-09T07:49:26.775Z,10.83
2022-11-09T07:54:52.166Z,10.93
2022-11-09T08:00:19.873Z,11.04
2022-11-09T08:05:44.238Z,11.15
2022-11-09T08:11:06.227Z,11.26
2022-11-09T08:16:29.424Z,11.38
2022-11-09T08:21:57.429Z,11.50
2022-11-09T08:27:19.506Z,11.59
2022-11-09T08:32:45.634Z,11.66
2022-11-09T08:38:07.481Z,11.76
2022-11-09T08:43:29.219Z,11.87
2022-11-09T08:48:50.811Z,11.94
2022-11-09T08:54:14.253Z,11.93
2022-11-09T08:59:36.204Z,11.97
2022-11-09T09:04:57.998Z,12.08
2022-11-09T09:10:20.154Z,12.12
2022-11-09T09:15:41.946Z,12.10
2022-11-09T09:21:07.898Z,12.08
2022-11-09T09:26:29.733Z,12.17
2022-11-09T09:31:51.251Z,12.37
2022-11-09T09:37:13.068Z,12.57
2022-11-09T09:42:42.939Z,12.68
2022-11-09T09:48:10.726Z,12.59
2022-11-09T09:53:37.289Z,12.51
2022-11-09T09:59:10.847Z,12.53
2022-11-09T10:04:36.882Z,12.67
2022-11-09T10:10:04.734Z,12.82
2022-11-09T10:15:47.615Z,12.88
2022-11-09T10:21:32.749Z,13.01
2022-11-09T10:27:01.602Z,13.12
2022-11-09T10:32:24.536Z,13.21
2022-11-09T10:37:50.205Z,13.34
2022-11-09T10:43:13.614Z,13.42
2022-11-09T10:48:55.977Z,13.44
2022-11-09T10:54:38.222Z,13.51
2022-11-09T11:00:21.980Z,13.60
2022-11-09T11:06:12.749Z,13.68
2022-11-09T11:12:15.382Z,13.76
2022-11-09T11:18:04.278Z,13.78
2022-11-09T11:23:45.696Z,13.82
2022-11-09T11:29:35.121Z,13.88
2022-11-09T11:35:30.017Z,13.95
2022-11-09T11:41:36.602Z,14.00
2022-11-09T11:47:42.288Z,14.14
2022-11-09T11:53:43.474Z,14.19
2022-11-09T11:59:45.026Z,14.12
2022-11-09T12:05:43.980Z,14.04
2022-11-09T12:11:46.651Z,13.97
2022-11-09T12:17:46.141Z,14.05
2022-11-09T12:23:41.846Z,14.21
2022-11-09T12:29:28.276Z,14.33
2022-11-09T12:35:09.171Z,14.35
2022-11-09T12:41:17.067Z,14.33
2022-11-09T12:47:05.143Z,14.31
2022-11-09T12:52:48.011Z,14.30
2022-11-09T12:58:31.426Z,14.24
2022-11-09T13:04:18.030Z,14.16
2022-11-09T13:10:00.709Z,14.18
2022-11-09T13:16:24.885Z,14.23
2022-11-09T13:22:19.748Z,14.26
2022-11-09T13:28:00.660Z,14.20
2022-11-09T13:33:42.497Z,14.13
2022-11-09T13:39:41.149Z,14.05
2022-11-09T13:45:42.740Z,13.90
2022-11-09T13:51:36.881Z,13.75
2022-11-09T13:57:17.774Z,13.59
2022-11-09T14:02:59.582Z,13.43
2022-11-09T14:08:41.517Z,13.33
2022-11-09T14:14:45.468Z,13.34
2022-11-09T14:20:42.244Z,13.43
2022-11-09T14:26:25.047Z,13.40
2022-11-09T14:32:32.139Z,13.34
2022-11-09T14:38:23.904Z,13.23
2022-11-09T14:44:05.567Z,13.06
2022-11-09T14:49:46.816Z,12.88
2022-11-09T14:55:27.811Z,12.74
2022-11-09T15:01:17.911Z,12.59
2022-11-09T15:07:04.009Z,12.49
2022-11-09T15:12:52.731Z,12.36
2022-11-09T15:18:36.180Z,12.27
2022-11-09T15:24:18.965Z,12.11
2022-11-09T15:29:59.968Z,11.96
2022-11-09T15:35:55.724Z,11.92
2022-11-09T15:41:37.718Z,11.90
2022-11-09T15:47:31.850Z,11.82
2022-11-09T15:53:13.677Z,11.71
2022-11-09T15:58:54.457Z,11.62
2022-11-09T16:04:35.393Z,11.57
2022-11-09T16:10:29.373Z,11.54
2022-11-09T16:16:12.051Z,11.45
2022-11-09T16:21:53.651Z,11.35
2022-11-09T16:27:49.491Z,11.25
2022-11-09T16:33:31.365Z,11.20
2022-11-09T16:39:18.723Z,11.17
2022-11-09T16:45:04.019Z,11.09
2022-11-09T16:50:45.140Z,10.96
2022-11-09T16:56:25.955Z,10.80
2022-11-09T17:02:06.515Z,10.75
2022-11-09T17:07:48.525Z,10.78
2022-11-09T17:13:29.389Z,10.76
2022-11-09T17:19:09.913Z,10.74
2022-11-09T17:24:50.440Z,10.68
2022-11-09T17:30:31.474Z,10.64
2022-11-09T17:36:14.179Z,10.60
2022-11-09T17:41:55.049Z,10.53
2022-11-09T17:47:35.904Z,10.49
2022-11-09T17:53:16.786Z,10.49
2022-11-09T17:58:57.549Z,10.48
2022-11-09T18:04:38.346Z,10.39
2022-11-09T18:10:19.171Z,10.33
2022-11-09T18:16:05.615Z,10.23
2022-11-09T18:21:47.285Z,10.19
2022-11-09T18:27:30.523Z,10.12
2022-11-09T18:33:11.621Z,10.11
2022-11-09T18:38:55.287Z,10.10
2022-11-09T18:44:36.519Z,10.01
2022-11-09T18:50:18.302Z,9.93
2022-11-09T18:56:06.285Z,9.87
2022-11-09T19:01:47.583Z,9.81
2022-11-09T19:07:28.928Z,9.74
2022-11-09T19:13:09.948Z,9.71
2022-11-09T19:18:51.039Z,9.68
2022-11-09T19:24:31.476Z,9.67
2022-11-09T19:30:12.570Z,9.72
2022-11-09T19:36:23.380Z,9.72
2022-11-09T19:41:54.617Z,9.72
2022-11-09T19:47:35.287Z,9.66
2022-11-09T19:53:16.726Z,9.66
2022-11-09T19:59:00.626Z,9.71
2022-11-09T20:04:43.564Z,9.74
2022-11-09T20:10:24.632Z,9.73
2022-11-09T20:16:07.639Z,9.73
2022-11-09T20:21:49.151Z,9.71
2022-11-09T20:27:32.287Z,9.71
2022-11-09T20:33:13.697Z,9.71
2022-11-09T20:38:54.922Z,9.72
2022-11-09T20:44:35.926Z,9.75
2022-11-09T20:50:16.890Z,9.71
2022-11-09T20:55:57.499Z,9.67
2022-11-09T21:01:38.366Z,9.66
2022-11-09T21:07:19.484Z,9.67
2022-11-09T21:13:00.338Z,9.70
2022-11-09T21:18:41.485Z,9.65
2022-11-09T21:24:40.509Z,9.56
2022-11-09T21:30:21.051Z,9.47
2022-11-09T21:36:09.697Z,9.41
2022-11-09T21:41:50.444Z,9.37
2022-11-09T21:47:31.939Z,9.39
2022-11-09T21:53:12.843Z,9.41
2022-11-09T21:58:53.731Z,9.39
2022-11-09T22:04:34.935Z,9.36
2022-11-09T22:10:16.249Z,9.34
2022-11-09T22:16:07.759Z,9.33
2022-11-09T22:21:48.756Z,9.31
2022-11-09T22:27:31.618Z,9.30
2022-11-09T22:33:12.426Z,9.30
2022-11-09T22:38:53.028Z,9.32
2022-11-09T22:44:33.943Z,9.33
2022-11-09T22:50:14.640Z,9.31
2022-11-09T22:55:57.850Z,9.33
2022-11-09T23:01:38.357Z,9.40
2022-11-09T23:07:19.464Z,9.50
2022-11-09T23:13:00.791Z,9.57
2022-11-09T23:18:56.383Z,9.56
2022-11-09T23:24:56.243Z,9.51
2022-11-09T23:30:37.237Z,9.43
2022-11-09T23:36:18.971Z,9.47
2022-11-09T23:41:59.933Z,9.54
2022-11-09T23:47:40.915Z,9.53
2022-11-09T23:53:22.080Z,9.59
2022-11-09T23:59:03.235Z,9.61
